Time;durP1;ratioP1;P1;durP2;ratioP2;P2;SDS_P1;SDS_P2;PMS_P1;PMS_P2;Temp;Humidity;BMP_temperature;BMP_pressure;BME280_temperature;BME280_humidity;BME280_pressure;Samples;Min_cycle;Max_cycle;Signal;HPM_P1;HPM_P2
2024/01/20 00:01:03;;;;;;;36.50;22.13;;;;;;;-2.54;73.12;101896.00;4088577;29;20044;-66
2024/01/20 00:03:06;;;;;;;36.33;21.08;;;;;;;-2.57;73.08;101896.66;4087443;29;20411;-66
2024/01/20 00:05:09;;;;;;;32.35;21.73;;;;;;;-2.60;73.02;101896.34;4087259;29;20048;-66
2024/01/20 00:07:13;;;;;;;34.58;21.77;;;;;;;-2.59;72.86;101893.03;4088639;29;20040;-66
2024/01/20 00:09:18;;;;;;;36.15;21.35;;;;;;;-2.58;72.69;101887.22;4088738;29;20457;-66
2024/01/20 00:11:21;;;;;;;32.83;21.48;;;;;;;-2.58;72.69;101887.22;4088373;29;20046;-66
2024/01/20 00:13:24;;;;;;;35.92;23.73;;;;;;;-2.56;72.34;101879.72;4088778;29;20515;-66
2024/01/20 00:15:27;;;;;;;35.10;19.88;;;;;;;-2.61;72.08;101881.84;4088556;29;20148;-66
2024/01/20 00:17:30;;;;;;;36.47;21.55;;;;;;;-2.60;72.25;101886.16;4087284;29;20112;-66
2024/01/20 00:19:32;;;;;;;40.60;22.75;;;;;;;-2.64;72.16;101895.19;4088666;29;20106;-67
2024/01/20 00:21:35;;;;;;;34.38;19.92;;;;;;;-2.64;72.21;101885.00;4087047;29;20087;-66
2024/01/20 00:23:39;;;;;;;34.63;21.77;;;;;;;-2.64;71.82;101886.66;4088491;29;20554;-66
2024/01/20 00:25:43;;;;;;;36.10;21.85;;;;;;;-2.61;71.77;101886.03;4087182;29;20043;-66
2024/01/20 00:27:46;;;;;;;33.67;19.08;;;;;;;-2.68;72.08;101889.69;4087518;29;20563;-66
2024/01/20 00:29:49;;;;;;;34.55;20.75;;;;;;;-2.73;72.35;101891.81;4089888;29;20613;-66
2024/01/20 00:31:52;;;;;;;35.17;21.40;;;;;;;-2.74;72.11;101895.09;4089288;29;20070;-67
2024/01/20 00:33:55;;;;;;;37.03;20.80;;;;;;;-2.81;72.37;101897.84;4090867;29;20055;-66
2024/01/20 00:35:57;;;;;;;32.53;20.02;;;;;;;-2.83;72.52;101897.72;4088616;29;20534;-66
2024/01/20 00:38:00;;;;;;;32.05;19.67;;;;;;;-2.90;72.50;101900.44;4071425;29;20407;-66
2024/01/20 00:40:05;;;;;;;35.78;20.75;;;;;;;-2.87;72.51;101904.94;4087315;29;20046;-66
2024/01/20 00:42:09;;;;;;;33.80;20.98;;;;;;;-2.80;72.72;101909.81;4088408;29;20604;-66
2024/01/20 00:44:11;;;;;;;32.25;19.48;;;;;;;-2.77;72.77;101914.28;4087129;29;20130;-66
2024/01/20 00:46:14;;;;;;;37.67;20.63;;;;;;;-2.75;73.03;101916.22;4071348;29;20059;-66
2024/01/20 00:48:17;;;;;;;34.88;21.80;;;;;;;-2.71;72.88;101919.94;4087213;29;20437;-66
2024/01/20 00:50:20;;;;;;;35.95;21.67;;;;;;;-2.72;72.87;101918.16;4086996;29;20063;-66
2024/01/20 00:52:23;;;;;;;28.45;19.42;;;;;;;-2.73;72.89;101917.28;4086834;29;20083;-67
2024/01/20 00:54:25;;;;;;;39.50;22.80;;;;;;;-2.73;72.78;101916.34;4087085;29;20043;-67
2024/01/20 00:56:28;;;;;;;31.63;19.83;;;;;;;-2.70;72.71;101916.63;4088393;29;20035;-66
2024/01/20 00:58:32;;;;;;;36.55;19.42;;;;;;;-2.68;72.68;101910.03;4086448;29;20577;-67
2024/01/20 01:00:35;;;;;;;37.42;19.90;;;;;;;-2.67;72.68;101906.75;4085928;29;20406;-66
2024/01/20 01:02:40;;;;;;;35.10;20.67;;;;;;;-2.61;72.54;101899.66;4085505;29;20043;-66
2024/01/20 01:04:42;;;;;;;34.95;20.83;;;;;;;-2.65;72.74;101905.22;4085682;29;20131;-66
2024/01/20 01:06:45;;;;;;;33.92;21.23;;;;;;;-2.74;72.47;101899.31;4085688;29;20079;-67
2024/01/20 01:08:48;;;;;;;34.20;20.73;;;;;;;-2.77;72.43;101909.19;4085651;29;20454;-67
2024/01/20 01:10:51;;;;;;;34.28;20.48;;;;;;;-2.80;72.57;101909.81;4085531;29;20068;-66
2024/01/20 01:12:54;;;;;;;34.85;21.52;;;;;;;-2.85;72.55;101911.97;4085572;29;20135;-66
2024/01/20 01:14:58;;;;;;;33.55;19.88;;;;;;;-2.84;72.31;101913.72;4084580;29;20048;-66
2024/01/20 01:17:02;;;;;;;31.20;20.67;;;;;;;-2.83;72.49;101907.88;4085813;29;20039;-66
2024/01/20 01:19:04;;;;;;;40.08;21.63;;;;;;;-2.84;72.19;101908.63;4085488;29;20051;-66
2024/01/20 01:21:07;;;;;;;35.83;21.73;;;;;;;-2.87;72.07;101908.34;4085204;29;20058;-66
2024/01/20 01:23:10;;;;;;;34.75;20.33;;;;;;;-2.89;71.98;101904.78;4085457;29;20105;-66
2024/01/20 01:25:13;;;;;;;35.50;21.63;;;;;;;-2.89;71.90;101914.97;4085400;29;20142;-67
2024/01/20 01:27:17;;;;;;;35.25;21.73;;;;;;;-2.91;72.20;101916.47;4085494;29;20051;-66
2024/01/20 01:29:20;;;;;;;33.30;21.25;;;;;;;-2.97;71.87;101910.81;4085426;29;20040;-66
2024/01/20 01:31:25;;;;;;;30.35;18.73;;;;;;;-2.97;72.02;101930.28;4085009;29;20044;-66
2024/01/20 01:33:26;;;;;;;30.92;18.95;;;;;;;-2.99;72.17;101927.59;4085441;29;20139;-67
2024/01/20 01:35:29;;;;;;;31.40;18.10;;;;;;;-3.03;72.10;101925.53;4085323;29;20044;-66
2024/01/20 01:37:32;;;;;;;33.72;21.55;;;;;;;-3.02;72.02;101934.97;4084155;29;20138;-66
2024/01/20 01:39:35;;;;;;;31.98;19.83;;;;;;;-3.02;71.79;101940.94;4084103;29;20164;-67
2024/01/20 01:41:37;;;;;;;37.97;21.17;;;;;;;-3.06;72.37;101943.06;4083855;29;20044;-67
2024/01/20 01:43:40;;;;;;;32.33;19.95;;;;;;;-3.02;72.14;101947.69;4084055;29;20095;-67
2024/01/20 01:45:43;;;;;;;35.03;20.25;;;;;;;-3.01;72.04;101949.44;4085143;29;20040;-67
2024/01/20 01:47:48;;;;;;;34.25;20.83;;;;;;;-3.07;72.10;101954.84;4085100;29;20442;-66
2024/01/20 01:49:51;;;;;;;33.00;20.30;;;;;;;-3.09;72.24;101952.94;4085172;29;20044;-66
2024/01/20 01:51:54;;;;;;;33.10;20.63;;;;;;;-3.07;72.30;101959.06;4084704;29;20119;-66
2024/01/20 01:54:01;;;;;;;32.75;20.42;;;;;;;-3.09;72.10;101956.38;4083824;29;20118;-67
2024/01/20 01:56:06;;;;;;;36.00;19.08;;;;;;;-3.12;72.29;101955.22;4085245;29;20120;-66
2024/01/20 01:58:09;;;;;;;35.28;20.77;;;;;;;-3.10;72.35;101953.69;4085072;29;20079;-66
2024/01/20 02:00:11;;;;;;;32.17;20.48;;;;;;;-3.11;71.93;101951.88;4085059;29;20088;-66
2024/01/20 02:02:14;;;;;;;33.60;20.05;;;;;;;-3.12;72.07;101956.09;4083478;29;20514;-66
2024/01/20 02:04:18;;;;;;;32.70;20.17;;;;;;;-3.15;71.94;101950.72;4084872;29;20553;-67
2024/01/20 02:06:21;;;;;;;32.63;18.58;;;;;;;-3.20;72.23;101947.75;4084902;29;20047;-66
2024/01/20 02:08:26;;;;;;;32.45;19.58;;;;;;;-3.24;72.32;101948.22;4067882;29;20538;-66
2024/01/20 02:10:31;;;;;;;32.33;20.90;;;;;;;-3.20;72.18;101946.84;4083633;29;20576;-66
2024/01/20 02:12:34;;;;;;;34.25;21.20;;;;;;;-3.22;72.02;101949.25;4084506;29;20058;-66
2024/01/20 02:14:37;;;;;;;32.92;20.08;;;;;;;-3.21;72.20;101951.03;4084795;29;20498;-67
2024/01/20 02:16:40;;;;;;;31.55;19.05;;;;;;;-3.28;72.23;101950.34;4083367;29;20083;-67
2024/01/20 02:18:43;;;;;;;33.97;20.92;;;;;;;-3.33;72.42;101953.34;4084686;29;20039;-67
2024/01/20 02:20:46;;;;;;;31.80;19.65;;;;;;;-3.31;72.10;101953.47;4084665;29;20414;-67
2024/01/20 02:22:51;;;;;;;33.53;20.05;;;;;;;-3.33;71.96;101954.97;4084341;29;20062;-67
2024/01/20 02:24:54;;;;;;;33.78;20.52;;;;;;;-3.32;71.64;101951.66;4084558;29;20047;-66
2024/01/20 02:26:57;;;;;;;33.50;20.95;;;;;;;-3.31;71.95;101950.94;4084466;29;20135;-66
2024/01/20 02:29:00;;;;;;;31.77;19.73;;;;;;;-3.31;71.54;101956.00;4083370;29;20478;-66
2024/01/20 02:31:04;;;;;;;36.33;21.45;;;;;;;-3.33;71.94;101958.41;4082941;29;20039;-66
2024/01/20 02:33:08;;;;;;;31.40;20.48;;;;;;;-3.36;72.23;101965.75;4084501;29;20558;-67
2024/01/20 02:35:10;;;;;;;35.53;21.10;;;;;;;-3.36;71.74;101980.09;4084478;29;20103;-67
2024/01/20 02:37:13;;;;;;;36.25;21.92;;;;;;;-3.31;72.58;101978.91;4083333;29;20039;-66
2024/01/20 02:39:17;;;;;;;35.13;21.92;;;;;;;-3.35;72.31;101972.63;4084245;29;20091;-66
2024/01/20 02:41:20;;;;;;;42.42;21.85;;;;;;;-3.40;72.31;101975.47;4084043;29;20510;-66
2024/01/20 02:43:23;;;;;;;34.40;20.63;;;;;;;-3.40;72.91;101968.75;4084457;29;20417;-67
2024/01/20 02:45:26;;;;;;;33.83;20.38;;;;;;;-3.40;72.79;101966.22;4084149;29;20071;-67
2024/01/20 02:47:29;;;;;;;33.42;20.83;;;;;;;-3.35;72.63;101964.09;4084226;29;20134;-66
2024/01/20 02:49:33;;;;;;;37.08;22.75;;;;;;;-3.38;73.10;101958.72;4084168;29;20047;-66
2024/01/20 02:51:36;;;;;;;33.80;21.00;;;;;;;-3.41;72.80;101964.41;4082646;29;20039;-67
2024/01/20 02:53:39;;;;;;;36.42;22.17;;;;;;;-3.42;73.11;101966.81;4083121;29;20043;-66
2024/01/20 02:55:44;;;;;;;37.10;21.45;;;;;;;-3.47;72.53;101968.03;4084128;29;20122;-66
2024/01/20 02:57:47;;;;;;;32.78;21.58;;;;;;;-3.47;72.61;101971.47;4084127;29;20054;-66
2024/01/20 02:59:49;;;;;;;32.30;21.35;;;;;;;-3.52;72.72;101971.03;4083920;29;20039;-66
2024/01/20 03:01:52;;;;;;;30.27;20.55;;;;;;;-3.55;73.34;101967.28;4083740;29;20044;-66
2024/01/20 03:03:55;;;;;;;31.85;21.02;;;;;;;-3.55;73.18;101968.22;4084008;29;20138;-66
2024/01/20 03:05:58;;;;;;;31.67;19.75;;;;;;;-3.51;72.66;101967.72;4084059;29;20052;-67
2024/01/20 03:08:01;;;;;;;33.13;20.63;;;;;;;-3.53;72.87;101968.34;4084026;29;20490;-66
2024/01/20 03:10:05;;;;;;;37.70;22.75;;;;;;;-3.54;72.10;101975.06;4083952;29;20516;-66
2024/01/20 03:12:09;;;;;;;37.50;21.98;;;;;;;-3.57;72.57;101967.16;4082234;29;20032;-67
2024/01/20 03:14:12;;;;;;;34.22;21.02;;;;;;;-3.58;72.16;101972.97;4083877;29;20048;-66
2024/01/20 03:16:15;;;;;;;34.42;20.90;;;;;;;-3.54;72.86;101975.06;4083815;29;20103;-66
2024/01/20 03:18:18;;;;;;;33.08;19.02;;;;;;;-3.52;72.51;101981.22;4083870;29;20110;-66
2024/01/20 03:20:21;;;;;;;34.88;21.70;;;;;;;-3.54;72.33;101980.13;4083837;29;20051;-66
2024/01/20 03:22:24;;;;;;;28.60;18.95;;;;;;;-3.56;71.93;101976.56;4081800;29;20039;-66
2024/01/20 03:24:27;;;;;;;33.90;21.58;;;;;;;-3.53;72.91;101970.91;4083821;29;20051;-67
2024/01/20 03:26:30;;;;;;;32.15;21.10;;;;;;;-3.55;72.10;101973.28;4083789;29;20047;-66
2024/01/20 03:28:34;;;;;;;29.65;19.73;;;;;;;-3.54;72.62;101969.97;4082507;29;20118;-67
2024/01/20 03:30:37;;;;;;;31.02;19.33;;;;;;;-3.61;71.68;101967.59;4083689;29;20051;-66
2024/01/20 03:32:40;;;;;;;34.78;21.00;;;;;;;-3.59;72.71;101966.13;4082134;29;20047;-66
2024/01/20 03:34:43;;;;;;;34.22;20.13;;;;;;;-3.65;72.31;101963.00;4082502;29;20517;-66
2024/01/20 03:36:46;;;;;;;33.85;19.42;;;;;;;-3.65;72.19;101974.78;4082568;29;20577;-66
2024/01/20 03:38:48;;;;;;;30.98;19.63;;;;;;;-3.70;71.78;101972.69;4083657;29;20040;-66
2024/01/20 03:40:51;;;;;;;32.08;18.48;;;;;;;-3.69;71.91;101977.03;4083529;29;20532;-66
2024/01/20 03:42:54;;;;;;;30.67;20.00;;;;;;;-3.68;71.40;101977.94;4082424;29;20071;-66
2024/01/20 03:44:58;;;;;;;33.83;20.67;;;;;;;-3.71;71.27;101981.09;4083489;29;20454;-66
2024/01/20 03:47:01;;;;;;;32.22;19.73;;;;;;;-3.63;72.02;101971.66;4083638;29;20297;-66
2024/01/20 03:49:04;;;;;;;30.27;19.17;;;;;;;-3.64;71.41;101972.41;4083672;29;20083;-66
2024/01/20 03:51:07;;;;;;;34.80;21.08;;;;;;;-3.65;71.83;101967.16;4081936;29;20047;-66
2024/01/20 03:53:10;;;;;;;30.10;18.13;;;;;;;-3.64;71.70;101969.84;4083419;29;20065;-67
2024/01/20 03:55:13;;;;;;;26.25;17.55;;;;;;;-3.59;71.65;101977.91;4082397;29;20047;-66
2024/01/20 03:57:16;;;;;;;30.98;17.92;;;;;;;-3.55;71.64;101983.47;4082244;29;20117;-66
2024/01/20 03:59:19;;;;;;;30.08;18.75;;;;;;;-3.63;71.16;101979.28;4083464;29;20454;-66
2024/01/20 04:01:23;;;;;;;31.85;19.52;;;;;;;-3.63;72.02;101974.19;4083288;29;20135;-67
2024/01/20 04:03:26;;;;;;;31.85;19.88;;;;;;;-3.58;71.82;101980.59;4083449;29;20554;-66
2024/01/20 04:05:29;;;;;;;34.55;21.27;;;;;;;-3.60;71.36;101987.19;4082315;29;20047;-66
2024/01/20 04:07:32;;;;;;;36.42;21.98;;;;;;;-3.54;71.81;101985.22;4083488;29;20130;-66
2024/01/20 04:09:35;;;;;;;45.50;23.88;;;;;;;-3.47;72.17;101990.91;4083409;29;20131;-66
2024/01/20 04:11:39;;;;;;;38.65;22.15;;;;;;;-3.47;72.07;101988.38;4083043;29;20055;-66
2024/01/20 04:13:40;;;;;;;32.22;20.40;;;;;;;-3.44;71.59;101994.63;4083167;29;20050;-66
2024/01/20 04:15:43;;;;;;;38.33;23.02;;;;;;;-3.50;71.58;102001.69;4082222;29;20418;-67
2024/01/20 04:17:48;;;;;;;37.10;25.15;;;;;;;-3.64;71.49;102007.09;4083327;29;20036;-66
2024/01/20 04:19:51;;;;;;;39.17;25.08;;;;;;;-3.76;71.02;102010.22;4083398;29;20102;-66
2024/01/20 04:21:54;;;;;;;39.33;24.00;;;;;;;-3.90;71.23;102011.44;4083110;29;20044;-66
2024/01/20 04:23:56;;;;;;;39.47;23.60;;;;;;;-3.98;70.68;102016.53;4082115;29;20036;-66
2024/01/20 04:25:59;;;;;;;39.75;23.52;;;;;;;-3.97;72.36;102011.59;4083502;29;20067;-66
2024/01/20 04:28:01;;;;;;;40.85;24.73;;;;;;;-3.97;71.84;102015.75;4083377;29;20039;-67
2024/01/20 04:30:05;;;;;;;38.72;22.95;;;;;;;-4.00;71.55;102015.47;4083317;29;20047;-67
2024/01/20 04:32:08;;;;;;;35.83;23.23;;;;;;;-3.99;71.23;102020.69;4082970;29;20052;-67
2024/01/20 04:34:12;;;;;;;39.95;22.90;;;;;;;-4.05;70.80;102023.53;4083018;29;20140;-67
2024/01/20 04:36:15;;;;;;;35.45;20.88;;;;;;;-4.12;71.49;102022.78;4086332;29;20409;-66
2024/01/20 04:38:18;;;;;;;35.60;20.80;;;;;;;-4.19;71.84;102033.09;4086279;29;20044;-66
2024/01/20 04:40:20;;;;;;;34.63;20.63;;;;;;;-4.28;70.98;102031.44;4086202;29;20130;-66
2024/01/20 04:42:23;;;;;;;36.50;21.40;;;;;;;-4.26;71.75;102027.41;4068934;29;20059;-66
2024/01/20 04:44:26;;;;;;;32.58;21.20;;;;;;;-4.20;71.59;102034.72;4084999;29;20047;-67
2024/01/20 04:46:29;;;;;;;36.47;20.63;;;;;;;-4.15;71.65;102032.66;4086029;29;20075;-66
2024/01/20 04:48:31;;;;;;;33.17;21.13;;;;;;;-4.19;71.27;102034.00;4086099;29;20644;-66
2024/01/20 04:50:36;;;;;;;34.05;18.95;;;;;;;-4.13;71.90;102044.75;4086219;29;20043;-66
2024/01/20 04:52:38;;;;;;;32.13;20.38;;;;;;;-4.14;71.86;102047.16;4085881;29;20048;-66
2024/01/20 04:54:41;;;;;;;30.65;18.67;;;;;;;-4.14;71.09;102042.06;4085917;29;20044;-66
2024/01/20 04:56:45;;;;;;;32.78;19.58;;;;;;;-4.11;71.92;102047.44;4085978;29;20043;-66
2024/01/20 04:58:48;;;;;;;33.80;20.27;;;;;;;-4.23;70.70;102050.56;4085909;29;20050;-66
2024/01/20 05:00:50;;;;;;;29.95;19.45;;;;;;;-4.32;70.96;102051.28;4084505;29;20441;-66
2024/01/20 05:02:53;;;;;;;38.00;22.17;;;;;;;-4.43;71.33;102051.09;4085863;29;20118;-66
2024/01/20 05:04:55;;;;;;;37.83;19.95;;;;;;;-4.52;71.36;102059.47;4085893;29;20098;-66
2024/01/20 05:06:59;;;;;;;30.05;19.33;;;;;;;-4.59;72.38;102063.91;4085866;29;20425;-66
2024/01/20 05:09:04;;;;;;;33.95;20.52;;;;;;;-4.50;71.76;102060.50;4085913;29;20071;-67
2024/01/20 05:11:07;;;;;;;31.25;19.55;;;;;;;-4.47;71.44;102058.25;4085508;29;20046;-66
2024/01/20 05:13:10;;;;;;;30.60;19.65;;;;;;;-4.45;71.15;102056.78;4085581;29;20067;-67
2024/01/20 05:15:12;;;;;;;34.75;18.88;;;;;;;-4.45;72.16;102059.34;4084332;29;20047;-66
2024/01/20 05:17:15;;;;;;;33.90;19.67;;;;;;;-4.55;70.56;102057.50;4084537;29;20054;-66
2024/01/20 05:19:18;;;;;;;36.58;22.73;;;;;;;-4.54;70.82;102058.38;4085680;29;20096;-66
2024/01/20 05:21:22;;;;;;;33.88;20.35;;;;;;;-4.60;72.52;102057.03;4085333;29;20490;-67
2024/01/20 05:23:26;;;;;;;35.25;20.73;;;;;;;-4.64;71.47;102051.50;4085635;29;20546;-66
2024/01/20 05:25:29;;;;;;;38.28;21.05;;;;;;;-4.71;71.21;102054.16;4085593;29;20212;-66
2024/01/20 05:27:32;;;;;;;40.72;23.83;;;;;;;-4.68;71.84;102055.38;4085462;29;20138;-66
2024/01/20 05:29:35;;;;;;;36.85;20.17;;;;;;;-4.68;72.20;102050.28;4085471;29;20478;-66
2024/01/20 05:31:38;;;;;;;33.08;20.02;;;;;;;-4.66;71.52;102061.47;4085023;29;20043;-66
2024/01/20 05:33:41;;;;;;;41.97;22.58;;;;;;;-4.63;71.04;102051.66;4085315;29;20066;-66
2024/01/20 05:35:45;;;;;;;39.00;22.52;;;;;;;-4.60;70.48;102057.03;4085414;29;20138;-66
2024/01/20 05:37:48;;;;;;;35.97;22.42;;;;;;;-4.59;72.27;102061.34;4084301;29;20074;-66
2024/01/20 05:39:53;;;;;;;39.25;22.65;;;;;;;-4.61;70.65;102065.38;4084155;29;20039;-66
2024/01/20 05:41:56;;;;;;;28.13;16.92;;;;;;;-4.60;71.06;102076.44;4084954;29;20127;-66
2024/01/20 05:43:59;;;;;;;41.38;23.48;;;;;;;-4.51;70.89;102079.00;4085480;29;20036;-66
2024/01/20 05:46:06;;;;;;;44.80;25.95;;;;;;;-4.52;70.67;102083.19;4084683;29;20051;-66
2024/01/20 05:48:08;;;;;;;54.67;29.20;;;;;;;-4.56;71.30;102078.53;4085296;29;20135;-66
2024/01/20 05:50:12;;;;;;;41.90;25.02;;;;;;;-4.62;71.73;102076.28;4085256;29;20130;-66
2024/01/20 05:52:15;;;;;;;50.42;28.83;;;;;;;-4.68;72.03;102080.75;4083626;29;20138;-66
2024/01/20 05:54:17;;;;;;;59.95;32.38;;;;;;;-4.70;70.87;102079.69;4083894;29;20039;-66
2024/01/20 05:56:23;;;;;;;52.40;30.80;;;;;;;-4.73;72.24;102081.94;4083793;29;20059;-67
2024/01/20 05:58:26;;;;;;;64.75;33.75;;;;;;;-4.73;71.68;102087.00;4085082;29;20058;-66
2024/01/20 06:00:29;;;;;;;54.72;32.97;;;;;;;-4.70;72.07;102082.22;4085352;29;20546;-66
2024/01/20 06:02:32;;;;;;;54.67;31.95;;;;;;;-4.67;71.19;102086.69;4084850;29;20051;-66
2024/01/20 06:04:35;;;;;;;59.03;33.88;;;;;;;-4.65;70.76;102088.66;4083744;29;20098;-66
2024/01/20 06:06:38;;;;;;;52.42;32.13;;;;;;;-4.66;70.57;102088.50;4084925;29;20047;-66
2024/01/20 06:08:41;;;;;;;58.85;32.58;;;;;;;-4.71;71.06;102093.13;4085005;29;20083;-66
2024/01/20 06:10:45;;;;;;;56.50;31.92;;;;;;;-4.80;71.17;102094.72;4084960;29;20046;-66
2024/01/20 06:12:50;;;;;;;53.97;31.90;;;;;;;-4.88;72.67;102093.91;4084537;29;20102;-67
2024/01/20 06:14:53;;;;;;;59.33;33.28;;;;;;;-4.91;71.10;102096.16;4083594;29;20447;-66
2024/01/20 06:16:56;;;;;;;59.20;34.17;;;;;;;-4.85;71.56;102093.34;4084774;29;20134;-66
2024/01/20 06:18:59;;;;;;;64.75;36.95;;;;;;;-4.83;72.57;102091.84;4084705;29;20498;-66
2024/01/20 06:21:02;;;;;;;62.92;34.65;;;;;;;-4.83;71.10;102097.84;4084534;29;20043;-66
2024/01/20 06:23:05;;;;;;;67.20;38.03;;;;;;;-4.78;72.17;102104.25;4084623;29;20075;-66
2024/01/20 06:25:09;;;;;;;61.42;36.47;;;;;;;-4.72;70.78;102114.16;4083373;29;20043;-66
2024/01/20 06:27:12;;;;;;;59.78;33.83;;;;;;;-4.74;70.37;102116.53;4084740;29;20039;-66
2024/01/20 06:29:16;;;;;;;59.83;34.50;;;;;;;-4.68;70.42;102120.44;4067812;29;20048;-66
2024/01/20 06:31:23;;;;;;;54.15;32.00;;;;;;;-4.65;70.59;102125.84;4084329;29;20063;-66
2024/01/20 06:33:26;;;;;;;56.20;32.10;;;;;;;-4.67;70.95;102138.38;4084574;29;20044;-66
2024/01/20 06:35:30;;;;;;;51.60;31.65;;;;;;;-4.69;71.77;102138.94;4084453;29;20063;-66
2024/01/20 06:37:32;;;;;;;55.28;32.30;;;;;;;-4.69;70.44;102142.38;4083414;29;20064;-66
2024/01/20 06:39:39;;;;;;;61.88;31.25;;;;;;;-4.64;70.89;102137.78;4084508;29;20482;-66
2024/01/20 06:41:45;;;;;;;52.05;32.03;;;;;;;-4.60;72.01;102129.72;4084056;29;20050;-67
2024/01/20 06:43:48;;;;;;;51.50;30.75;;;;;;;-4.60;70.81;102135.72;4084448;29;20512;-66
2024/01/20 06:45:52;;;;;;;55.90;30.95;;;;;;;-4.62;70.96;102142.25;4084215;29;20047;-66
2024/01/20 06:47:55;;;;;;;59.92;31.17;;;;;;;-4.64;72.01;102142.88;4084291;29;20156;-66
2024/01/20 06:49:58;;;;;;;58.65;32.20;;;;;;;-4.67;72.22;102143.44;4084302;29;20115;-66
2024/01/20 06:52:01;;;;;;;51.83;28.50;;;;;;;-4.66;70.69;102140.13;4083949;29;20078;-66
2024/01/20 06:54:04;;;;;;;47.38;31.23;;;;;;;-4.63;71.95;102149.72;4082904;29;20443;-66
2024/01/20 06:56:07;;;;;;;53.33;31.50;;;;;;;-4.67;72.26;102148.50;4083704;29;20403;-66
2024/01/20 06:58:11;;;;;;;48.45;28.33;;;;;;;-4.69;71.62;102149.97;4083839;29;20054;-66
2024/01/20 07:00:15;;;;;;;51.38;28.30;;;;;;;-4.68;71.62;102143.28;4084113;29;20050;-66
2024/01/20 07:02:19;;;;;;;52.10;30.27;;;;;;;-4.67;70.64;102145.97;4083915;29;20387;-66
2024/01/20 07:04:23;;;;;;;53.63;31.67;;;;;;;-4.68;71.40;102153.44;4085282;29;20516;-66
2024/01/20 07:06:26;;;;;;;47.38;30.50;;;;;;;-4.62;71.24;102151.50;4085325;29;20500;-66
2024/01/20 07:08:30;;;;;;;53.50;30.80;;;;;;;-4.62;71.85;102152.41;4084569;29;20573;-66
2024/01/20 07:10:33;;;;;;;50.53;29.02;;;;;;;-4.57;70.76;102146.19;4066961;29;20048;-66
2024/01/20 07:12:36;;;;;;;49.33;27.65;;;;;;;-4.54;71.20;102149.75;4082620;29;20417;-66
2024/01/20 07:14:42;;;;;;;51.60;29.38;;;;;;;-4.59;71.57;102151.81;4082617;29;20502;-66
2024/01/20 07:16:45;;;;;;;48.33;27.73;;;;;;;-4.63;71.33;102154.78;4084009;29;20524;-66
2024/01/20 07:18:49;;;;;;;45.97;27.35;;;;;;;-4.64;71.33;102160.63;4084190;29;20082;-66
2024/01/20 07:20:54;;;;;;;46.00;27.90;;;;;;;-4.66;70.56;102157.00;4083769;29;20078;-66
2024/01/20 07:22:57;;;;;;;45.83;26.73;;;;;;;-4.70;70.77;102162.50;4083955;29;20138;-66
2024/01/20 07:25:00;;;;;;;45.20;27.02;;;;;;;-4.76;72.36;102162.78;4083901;29;20103;-66
2024/01/20 07:27:03;;;;;;;45.65;26.33;;;;;;;-4.79;71.38;102159.91;4083708;29;20071;-68
2024/01/20 07:29:06;;;;;;;47.80;26.85;;;;;;;-4.82;70.96;102170.69;4083897;29;20402;-66
2024/01/20 07:31:09;;;;;;;44.20;25.90;;;;;;;-4.82;70.91;102172.28;4083464;29;20043;-66
2024/01/20 07:33:12;;;;;;;47.03;26.30;;;;;;;-4.76;71.24;102180.53;4083816;29;20047;-66
2024/01/20 07:35:16;;;;;;;45.72;28.20;;;;;;;-4.67;71.71;102183.13;4083604;29;20401;-66
2024/01/20 07:37:19;;;;;;;45.63;26.88;;;;;;;-4.66;71.26;102178.19;4083924;29;20417;-66
2024/01/20 07:39:22;;;;;;;49.67;28.05;;;;;;;-4.65;70.61;102187.63;4083736;29;20048;-66
2024/01/20 07:41:24;;;;;;;47.42;29.48;;;;;;;-4.61;71.68;102187.19;4083493;29;20041;-66
2024/01/20 07:43:27;;;;;;;42.95;24.90;;;;;;;-4.54;70.92;102192.91;4082367;29;20446;-66
2024/01/20 07:45:31;;;;;;;49.58;29.48;;;;;;;-4.56;71.54;102193.66;4082212;29;20063;-66
2024/01/20 07:47:34;;;;;;;50.05;29.35;;;;;;;-4.54;71.23;102201.44;4083533;29;20039;-66
2024/01/20 07:49:37;;;;;;;46.78;28.55;;;;;;;-4.52;70.96;102201.59;4082445;29;20052;-66
2024/01/20 07:51:41;;;;;;;53.92;28.15;;;;;;;-4.52;70.96;102204.13;4082003;29;20046;-66
2024/01/20 07:53:44;;;;;;;49.20;29.65;;;;;;;-4.56;72.09;102213.03;4083217;29;20050;-66
2024/01/20 07:55:48;;;;;;;44.80;26.58;;;;;;;-4.50;71.61;102215.31;4082915;29;20155;-66
2024/01/20 07:57:50;;;;;;;50.17;28.98;;;;;;;-4.47;71.70;102223.25;4081518;29;20063;-66
2024/01/20 07:59:53;;;;;;;50.78;30.05;;;;;;;-4.42;70.43;102222.09;4082920;29;20071;-67
2024/01/20 08:01:55;;;;;;;52.10;29.70;;;;;;;-4.43;72.10;102231.34;4081908;29;20044;-66
2024/01/20 08:03:58;;;;;;;46.65;29.17;;;;;;;-4.45;70.97;102226.88;4083779;29;20044;-67
2024/01/20 08:06:01;;;;;;;45.15;25.98;;;;;;;-4.37;71.69;102220.91;4066797;29;20059;-67
2024/01/20 08:08:06;;;;;;;50.50;27.98;;;;;;;-4.40;71.84;102218.94;4083300;29;20352;-66
2024/01/20 08:10:09;;;;;;;;;;;;;;;-4.54;72.22;102215.75;4087400;29;20075;-66
2024/01/20 08:12:13;;;;;;;35.20;20.67;;;;;;;-4.49;72.45;102218.00;4085309;29;19923;-67
2024/01/20 08:14:15;;;;;;;42.05;23.88;;;;;;;-4.39;71.33;102213.13;4086781;29;20071;-66
2024/01/20 08:16:18;;;;;;;38.78;23.92;;;;;;;-4.31;70.69;102216.44;4085631;29;20040;-66
2024/01/20 08:18:21;;;;;;;35.35;21.60;;;;;;;-4.30;71.39;102215.72;4086996;29;20054;-66
2024/01/20 08:20:24;;;;;;;39.70;22.58;;;;;;;-4.21;70.80;102214.09;4085615;29;20055;-67
2024/01/20 08:22:27;;;;;;;35.15;21.10;;;;;;;-4.19;70.29;102223.53;4086582;29;20055;-66
2024/01/20 08:24:31;;;;;;;36.50;21.00;;;;;;;-4.16;71.38;102224.75;4085489;29;20039;-67
2024/01/20 08:26:35;;;;;;;36.47;21.95;;;;;;;-4.16;70.57;102223.84;4086646;29;20363;-66
2024/01/20 08:28:38;;;;;;;33.72;21.70;;;;;;;-4.13;70.98;102230.16;4089580;29;20047;-67
2024/01/20 08:30:39;;;;;;;41.30;23.50;;;;;;;-4.10;71.42;102224.50;4087229;29;20480;-67
2024/01/20 08:32:43;;;;;;;39.90;22.52;;;;;;;-4.08;71.80;102228.06;4086405;29;20050;-67
2024/01/20 08:34:46;;;;;;;35.72;21.23;;;;;;;-4.00;70.63;102226.28;4086467;29;20040;-68
2024/01/20 08:36:49;;;;;;;39.13;23.73;;;;;;;-3.92;71.47;102228.88;4085213;29;20047;-66
2024/01/20 08:38:51;;;;;;;46.92;24.70;;;;;;;-3.84;71.56;102227.13;4086492;29;20065;-67
2024/01/20 08:40:56;;;;;;;48.08;26.63;;;;;;;-3.88;70.16;102233.53;4086090;29;20047;-66
2024/01/20 08:43:00;;;;;;;40.75;25.35;;;;;;;-3.87;71.02;102237.88;4085097;29;20043;-66
2024/01/20 08:45:03;;;;;;;41.20;25.60;;;;;;;-3.88;71.44;102232.63;4086035;29;20071;-66
2024/01/20 08:47:06;;;;;;;46.78;27.35;;;;;;;-3.86;71.10;102243.84;4086047;29;20047;-66
2024/01/20 08:49:09;;;;;;;43.95;24.83;;;;;;;-3.78;71.19;102252.22;4068971;29;20044;-67
2024/01/20 08:51:12;;;;;;;42.92;26.70;;;;;;;-3.75;71.26;102247.44;4084541;29;20042;-67
2024/01/20 08:53:15;;;;;;;37.30;23.63;;;;;;;-3.75;71.63;102250.91;4084691;29;20052;-66
2024/01/20 08:55:18;;;;;;;41.33;24.90;;;;;;;-3.66;72.04;102250.00;4086015;29;20083;-66
2024/01/20 08:57:22;;;;;;;42.40;25.25;;;;;;;-3.57;71.70;102258.59;4085933;29;20076;-67
2024/01/20 08:59:25;;;;;;;45.85;27.50;;;;;;;-3.54;72.02;102252.13;4084831;29;20094;-67
2024/01/20 09:01:28;;;;;;;44.30;25.98;;;;;;;-3.55;71.13;102252.91;4084207;29;20437;-66
2024/01/20 09:03:31;;;;;;;48.83;27.17;;;;;;;-3.65;71.06;102250.19;4085867;29;20044;-66
2024/01/20 09:05:34;;;;;;;50.53;28.65;;;;;;;-3.68;71.41;102254.94;4084731;29;20509;-66
2024/01/20 09:07:41;;;;;;;46.60;27.33;;;;;;;-3.58;72.18;102254.22;4085838;29;20103;-66
2024/01/20 09:09:44;;;;;;;55.22;29.70;;;;;;;-3.54;72.33;102259.78;4085772;29;20063;-66
2024/01/20 09:11:47;;;;;;;50.55;29.92;;;;;;;-3.47;71.63;102258.75;4085453;29;20556;-66
2024/01/20 09:13:52;;;;;;;47.95;28.38;;;;;;;-3.48;72.09;102261.16;4085849;29;20413;-66
2024/01/20 09:15:56;;;;;;;54.80;31.27;;;;;;;-3.47;71.75;102266.38;4085803;29;20044;-66
2024/01/20 09:17:59;;;;;;;45.22;27.85;;;;;;;-3.45;71.98;102269.06;4085668;29;20099;-67
2024/01/20 09:20:02;;;;;;;40.92;26.13;;;;;;;-3.45;71.69;102269.06;4084832;29;20047;-68